Time;durP1;ratioP1;P1;durP2;ratioP2;P2;SDS_P1;SDS_P2;PMS_P1;PMS_P2;Temp;Humidity;BMP_temperature;BMP_pressure;BME280_temperature;BME280_humidity;BME280_pressure;Samples;Min_cycle;Max_cycle;Signal;HPM_P1;HPM_P2
2022/12/11 00:00:51;;;;;;;9.87;6.60;;;-0.10;99.90;-0.80;99891.00;;;;4810437;28;97028;-65
2022/12/11 00:03:17;;;;;;;13.97;8.17;;;-0.40;99.90;-0.70;99893.00;;;;4813988;28;92678;-66
2022/12/11 00:05:44;;;;;;;11.53;8.10;;;-0.30;99.90;-0.70;99890.00;;;;4813719;28;92796;-65
2022/12/11 00:08:11;;;;;;;12.17;7.67;;;-0.30;99.90;-0.70;99883.00;;;;4817883;28;92173;-65
2022/12/11 00:10:36;;;;;;;12.60;7.10;;;-0.30;99.90;-0.70;99886.00;;;;4813438;28;92945;-66
2022/12/11 00:13:02;;;;;;;15.20;8.70;;;-0.30;99.90;-0.70;99887.00;;;;4820563;28;95273;-66
2022/12/11 00:15:29;;;;;;;14.40;8.20;;;-0.40;99.90;-0.70;99889.00;;;;4816321;28;108531;-65
2022/12/11 00:17:55;;;;;;;12.57;7.47;;;-0.30;99.90;-0.80;99889.00;;;;4816814;28;123159;-66
2022/12/11 00:20:20;;;;;;;15.53;8.17;;;0.20;99.90;-0.80;99894.00;;;;4820390;28;122779;-66
2022/12/11 00:22:46;;;;;;;11.17;7.87;;;-0.40;99.90;-0.80;99897.00;;;;4801538;28;111360;-65
2022/12/11 00:25:12;;;;;;;13.43;7.53;;;-0.40;99.90;-0.70;99895.00;;;;4805071;28;105948;-65
2022/12/11 00:27:38;;;;;;;12.60;7.73;;;-0.50;99.90;-0.80;99894.00;;;;4823369;28;105145;-65
2022/12/11 00:30:04;;;;;;;15.87;7.97;;;-0.20;99.90;-0.80;99894.00;;;;4818001;28;122751;-65
2022/12/11 00:32:30;;;;;;;14.90;8.07;;;-0.80;99.90;-0.80;99886.00;;;;4817855;28;94841;-67
2022/12/11 00:34:57;;;;;;;14.27;7.63;;;0.40;99.90;-0.80;99882.00;;;;4805650;28;92675;-67
2022/12/11 00:37:22;;;;;;;12.10;7.07;;;0.60;99.90;-0.80;99891.00;;;;4802989;28;97501;-66
2022/12/11 00:39:48;;;;;;;12.50;8.17;;;-0.30;99.90;-0.80;99885.00;;;;4821798;28;111772;-66
2022/12/11 00:42:14;;;;;;;15.83;8.87;;;-0.40;99.90;-0.80;99893.00;;;;4815647;28;110149;-65
2022/12/11 00:44:40;;;;;;;11.47;6.83;;;0.60;99.90;-0.80;99893.00;;;;4814151;28;92479;-65
2022/12/11 00:47:06;;;;;;;13.50;7.07;;;-0.40;99.90;-0.80;99896.00;;;;4809103;28;92595;-66
2022/12/11 00:49:31;;;;;;;10.77;7.07;;;-0.30;99.90;-0.80;99896.00;;;;4810587;28;92297;-65
2022/12/11 00:51:57;;;;;;;10.60;7.30;;;-0.40;99.90;-0.80;99901.00;;;;4814339;28;92618;-65
2022/12/11 00:54:23;;;;;;;13.53;7.03;;;-0.40;99.90;-0.80;99900.00;;;;4795980;29;92375;-66
2022/12/11 00:56:49;;;;;;;12.43;8.57;;;-0.40;99.90;-0.80;99898.00;;;;4815599;28;97974;-66
2022/12/11 00:59:15;;;;;;;15.23;8.20;;;-0.40;99.90;-0.80;99885.00;;;;4782957;29;93857;-67
2022/12/11 01:01:41;;;;;;;13.27;8.73;;;-0.40;99.90;-0.90;99895.00;;;;4814599;28;92581;-67
2022/12/11 01:04:07;;;;;;;12.20;7.37;;;-0.50;99.90;-0.90;99892.00;;;;4812242;28;93310;-67
2022/12/11 01:06:32;;;;;;;12.03;6.83;;;-0.40;99.90;-0.90;99897.00;;;;4798704;29;92742;-66
2022/12/11 01:11:42;;;;;;;11.47;6.93;;;-0.50;99.90;-0.90;99890.00;;;;4809907;28;92606;-66
2022/12/11 01:14:10;;;;;;;12.77;6.97;;;-0.50;99.90;-0.90;99890.00;;;;4794548;28;106205;-66
2022/12/11 01:16:36;;;;;;;11.23;7.03;;;-0.50;99.90;-0.90;99884.00;;;;4795603;29;92854;-67
2022/12/11 01:19:02;;;;;;;12.70;7.07;;;-0.50;99.90;-0.90;99888.00;;;;4796601;28;123082;-66
2022/12/11 01:21:28;;;;;;;11.57;7.63;;;-0.40;99.90;-0.90;99882.00;;;;4814909;28;91724;-65
2022/12/11 01:23:54;;;;;;;14.57;7.07;;;-0.40;99.90;-0.90;99897.00;;;;4810759;28;92093;-66
2022/12/11 01:26:20;;;;;;;11.37;7.50;;;-0.50;99.90;-0.90;99895.00;;;;4797407;28;92508;-67
2022/12/11 01:28:50;;;;;;;16.93;7.47;;;-0.50;99.90;-0.90;99892.00;;;;4795673;29;93616;-66
2022/12/11 01:31:17;;;;;;;11.00;7.73;;;-0.40;99.90;-0.90;99891.00;;;;4818117;28;92551;-65
2022/12/11 01:33:44;;;;;;;13.27;7.07;;;-0.50;99.90;-0.90;99896.00;;;;4785498;29;93015;-65
2022/12/11 01:36:19;;;;;;;14.33;7.53;;;-0.40;99.90;-0.90;99898.00;;;;4812824;28;93369;-66
2022/12/11 01:38:47;;;;;;;10.43;6.73;;;-0.50;99.90;-0.90;99889.00;;;;4812266;28;92660;-66
2022/12/11 01:41:14;;;;;;;13.63;7.30;;;-0.40;99.90;-0.90;99890.00;;;;4801194;29;92643;-66
2022/12/11 01:44:04;;;;;;;11.77;7.83;;;-0.50;99.90;-0.90;99890.00;;;;4814848;28;92327;-66
2022/12/11 01:46:33;;;;;;;12.97;6.87;;;-0.50;99.90;-0.90;99887.00;;;;4799073;28;92030;-66
2022/12/11 01:49:01;;;;;;;15.80;7.93;;;-0.40;99.90;-0.80;99899.00;;;;4797253;28;94402;-66
2022/12/11 01:51:30;;;;;;;12.17;7.03;;;0.50;99.90;-0.90;99890.00;;;;4800477;29;92493;-66
2022/12/11 01:54:08;;;;;;;12.07;7.27;;;-0.50;99.90;-0.90;99891.00;;;;4782567;28;93160;-65
2022/12/11 01:56:36;;;;;;;14.10;7.43;;;-0.50;99.90;-0.90;99882.00;;;;4804077;29;92751;-65
2022/12/11 01:59:06;;;;;;;10.77;7.73;;;-0.50;99.90;-0.90;99882.00;;;;4800044;28;93584;-66
2022/12/11 02:01:55;;;;;;;16.10;6.87;;;-0.50;99.90;-0.90;99876.00;;;;4814781;28;92791;-65
2022/12/11 02:04:21;;;;;;;15.83;6.83;;;-0.40;99.90;-0.80;99885.00;;;;4811846;28;92307;-65
2022/12/11 02:06:50;;;;;;;16.03;8.27;;;-0.40;99.90;-0.80;99890.00;;;;4795629;29;92675;-66
2022/12/11 02:09:22;;;;;;;13.63;8.70;;;-0.30;99.90;-0.80;99888.00;;;;4816697;28;94248;-67
2022/12/11 02:12:12;;;;;;;11.27;6.90;;;-0.40;99.90;-0.80;99890.00;;;;4819709;28;92000;-66
2022/12/11 02:15:00;;;;;;;14.47;6.97;;;-0.40;99.90;-0.70;99884.00;;;;4820509;28;92412;-66
2022/12/11 02:17:39;;;;;;;15.97;9.37;;;-0.50;99.90;-0.70;99893.00;;;;4817711;28;93714;-66
2022/12/11 02:20:23;;;;;;;17.07;8.97;;;-0.30;99.90;-0.70;99894.00;;;;4817635;28;93705;-65
2022/12/11 02:23:11;;;;;;;12.43;7.90;;;-0.30;99.90;-0.80;99886.00;;;;4796195;28;92454;-66
2022/12/11 02:26:15;;;;;;;12.23;7.37;;;-0.30;99.90;-0.80;99892.00;;;;4810307;28;92346;-66
2022/12/11 02:29:00;;;;;;;16.27;8.93;;;-0.30;99.90;-0.80;99889.00;;;;4812855;28;92702;-65
2022/12/11 02:31:49;;;;;;;15.57;8.43;;;-0.30;99.90;-0.80;99880.00;;;;4809256;28;92988;-67
2022/12/11 02:34:45;;;;;;;12.93;8.87;;;-0.40;99.90;-0.80;99879.00;;;;4785481;28;92784;-67
2022/12/11 02:37:19;;;;;;;11.53;7.83;;;-0.50;99.90;-0.80;99873.00;;;;4799297;28;92627;-66
2022/12/11 02:39:48;;;;;;;10.53;7.43;;;-0.40;99.90;-0.80;99860.00;;;;4811131;28;92210;-66
2022/12/11 02:42:15;;;;;;;12.53;8.00;;;-0.40;99.90;-0.80;99859.00;;;;4814362;28;92228;-65
2022/12/11 02:44:42;;;;;;;12.77;7.93;;;-0.40;99.90;-0.80;99856.00;;;;4800025;28;92467;-66
2022/12/11 02:47:14;;;;;;;13.77;8.87;;;-0.30;99.90;-0.80;99864.00;;;;4818054;28;93530;-66
2022/12/11 02:49:43;;;;;;;13.03;8.23;;;-0.40;99.90;-0.70;99855.00;;;;4781897;28;94735;-66
2022/12/11 02:52:13;;;;;;;13.30;7.27;;;-0.30;99.90;-0.80;99866.00;;;;4798942;28;93853;-66
2022/12/11 02:54:41;;;;;;;11.70;8.50;;;-0.40;99.90;-0.70;99866.00;;;;4812552;28;92924;-65
2022/12/11 02:57:42;;;;;;;13.27;7.23;;;0.40;99.90;-0.80;99866.00;;;;4814331;28;92794;-65
2022/12/11 03:00:09;;;;;;;12.70;6.97;;;-0.40;99.90;-0.70;99872.00;;;;4793576;29;93709;-66
2022/12/11 03:02:36;;;;;;;14.63;7.40;;;-0.40;99.90;-0.70;99876.00;;;;4810906;28;92586;-66
2022/12/11 03:05:04;;;;;;;10.57;7.97;;;-0.30;99.90;-0.70;99870.00;;;;4795740;28;92128;-66
2022/12/11 03:07:35;;;;;;;15.63;8.77;;;-0.40;99.90;-0.70;99867.00;;;;4814578;28;92390;-65
2022/12/11 03:10:02;;;;;;;13.50;7.57;;;-0.40;99.90;-0.70;99875.00;;;;4813988;28;93763;-66
2022/12/11 03:12:31;;;;;;;10.20;6.67;;;-0.30;99.90;-0.70;99877.00;;;;4810356;28;93727;-65
2022/12/11 03:15:04;;;;;;;8.00;5.97;;;-0.30;99.90;-0.70;99872.00;;;;4812943;28;92273;-66
2022/12/11 03:18:02;;;;;;;15.37;8.00;;;-0.40;99.90;-0.80;99883.00;;;;4783046;28;92901;-65
2022/12/11 03:20:47;;;;;;;12.03;6.30;;;-0.40;99.90;-0.80;99882.00;;;;4795920;28;110162;-65
2022/12/11 03:23:25;;;;;;;11.53;6.50;;;-0.20;99.90;-0.70;99880.00;;;;4812848;28;94302;-67
2022/12/11 03:26:05;;;;;;;12.27;6.50;;;-0.30;99.90;-0.80;99883.00;;;;4797831;28;92846;-66
2022/12/11 03:28:50;;;;;;;12.10;7.20;;;-0.30;99.90;-0.70;99883.00;;;;4799121;28;92459;-66
2022/12/11 03:31:33;;;;;;;13.67;7.30;;;-0.30;99.90;-0.80;99867.00;;;;4812097;28;91718;-66
2022/12/11 03:34:03;;;;;;;15.13;7.70;;;-0.30;99.90;-0.70;99868.00;;;;4801583;28;92245;-66
2022/12/11 03:36:37;;;;;;;13.57;7.00;;;-0.30;99.90;-0.70;99880.00;;;;4801089;28;92739;-66
2022/12/11 03:39:16;;;;;;;9.20;6.83;;;-0.30;99.90;-0.70;99871.00;;;;4798507;28;93557;-66
2022/12/11 03:41:44;;;;;;;12.43;8.00;;;-0.40;99.90;-0.70;99872.00;;;;4816337;28;92701;-65
2022/12/11 03:44:11;;;;;;;12.07;7.03;;;-0.40;99.90;-0.70;99884.00;;;;4796591;28;93174;-66
2022/12/11 03:46:40;;;;;;;9.77;6.70;;;-0.30;99.90;-0.80;99874.00;;;;4788434;28;92813;-66
2022/12/11 03:49:23;;;;;;;14.03;7.17;;;-0.40;99.90;-0.80;99885.00;;;;4801197;28;92395;-66
2022/12/11 03:51:53;;;;;;;12.00;7.03;;;-0.40;99.90;-0.70;99870.00;;;;4811706;28;92686;-66
2022/12/11 03:54:19;;;;;;;9.13;6.73;;;-0.30;99.90;-0.70;99884.00;;;;4800690;28;92888;-66
2022/12/11 03:56:47;;;;;;;9.97;6.10;;;-0.40;99.90;-0.70;99872.00;;;;4819684;28;109121;-65
2022/12/11 03:59:13;;;;;;;10.10;6.67;;;-0.30;99.90;-0.70;99871.00;;;;4816154;28;92565;-66
2022/12/11 04:01:38;;;;;;;11.17;7.30;;;-0.40;99.90;-0.70;99875.00;;;;4798956;28;121454;-66
2022/12/11 04:04:04;;;;;;;13.87;7.37;;;-0.40;99.90;-0.70;99880.00;;;;4799686;28;94141;-65
2022/12/11 04:06:30;;;;;;;11.57;6.57;;;-0.40;99.90;-0.70;99878.00;;;;4785515;28;111632;-66
2022/12/11 04:08:56;;;;;;;10.53;6.30;;;-0.40;99.90;-0.70;99872.00;;;;4814152;28;92865;-65
2022/12/11 04:11:34;;;;;;;11.47;7.37;;;-0.40;99.90;-0.70;99879.00;;;;4812645;28;120055;-65
2022/12/11 04:16:55;;;;;;;12.80;6.80;;;-0.40;99.90;-0.70;99881.00;;;;4800901;28;92651;-66
2022/12/11 04:24:58;;;;;;;12.83;7.17;;;-0.40;99.90;-0.80;99884.00;;;;4793918;28;92639;-67
2022/12/11 04:30:16;;;;;;;11.83;8.07;;;-0.40;99.90;-0.80;99876.00;;;;4816127;28;94252;-65
2022/12/11 04:32:42;;;;;;;14.50;7.63;;;-0.40;99.90;-0.80;99882.00;;;;4820779;28;92491;-66
2022/12/11 04:35:09;;;;;;;11.20;7.10;;;0.20;99.90;-0.70;99878.00;;;;4817537;28;98502;-66
2022/12/11 04:37:36;;;;;;;10.17;6.63;;;-0.30;99.90;-0.70;99878.00;;;;4816707;28;91925;-67
2022/12/11 04:40:04;;;;;;;14.87;8.03;;;-0.30;99.90;-0.70;99880.00;;;;4817735;28;92525;-65
2022/12/11 04:42:30;;;;;;;12.67;6.90;;;-0.40;99.90;-0.70;99880.00;;;;4817223;28;92745;-66
2022/12/11 04:44:56;;;;;;;13.50;7.27;;;-0.30;99.90;-0.70;99879.00;;;;4801441;28;93077;-66
2022/12/11 04:47:22;;;;;;;10.47;7.53;;;-0.30;99.90;-0.70;99863.00;;;;4798151;29;104698;-66
2022/12/11 04:49:47;;;;;;;9.63;5.37;;;-0.30;99.90;-0.80;99869.00;;;;4799873;29;99201;-66
2022/12/11 04:52:13;;;;;;;13.57;7.73;;;-0.30;99.90;-0.80;99876.00;;;;4818567;28;92403;-66
2022/12/11 04:54:39;;;;;;;10.47;6.30;;;-0.40;99.90;-0.80;99868.00;;;;4797708;28;95037;-65
2022/12/11 04:57:05;;;;;;;14.20;8.70;;;-0.50;99.90;-0.80;99855.00;;;;4797559;28;92603;-66
2022/12/11 04:59:32;;;;;;;12.20;7.33;;;-0.50;99.90;-0.80;99866.00;;;;4810432;28;92619;-67
2022/12/11 05:01:58;;;;;;;14.13;9.37;;;-0.40;99.90;-0.90;99856.00;;;;4780889;28;92647;-66
2022/12/11 05:04:24;;;;;;;17.57;9.47;;;-1.10;99.90;-0.90;99866.00;;;;4812059;28;92696;-66
2022/12/11 05:06:50;;;;;;;16.30;9.23;;;-0.50;99.90;-0.90;99859.00;;;;4798951;29;92659;-66
2022/12/11 05:09:16;;;;;;;16.30;8.07;;;-0.40;99.90;-0.90;99855.00;;;;4817521;28;92205;-67
2022/12/11 05:11:41;;;;;;;13.80;8.07;;;0.00;99.90;-0.90;99862.00;;;;4802684;28;91884;-65
2022/12/11 05:14:07;;;;;;;16.43;9.00;;;-0.40;99.90;-0.90;99863.00;;;;4805153;28;93738;-66
2022/12/11 05:16:33;;;;;;;12.33;7.43;;;-0.50;99.90;-0.90;99853.00;;;;4800077;28;92361;-66
2022/12/11 05:18:59;;;;;;;17.37;9.17;;;-0.60;99.90;-1.00;99854.00;;;;4805338;28;93412;-66
2022/12/11 05:21:25;;;;;;;12.03;7.63;;;0.30;99.90;-1.00;99851.00;;;;4787411;28;92696;-66
2022/12/11 05:23:51;;;;;;;10.00;6.93;;;-0.50;99.90;-1.00;99853.00;;;;4818546;28;92823;-66
2022/12/11 05:26:19;;;;;;;14.17;8.10;;;0.10;99.90;-1.00;99866.00;;;;4814232;28;92106;-66
2022/12/11 05:28:50;;;;;;;15.83;8.63;;;-0.60;99.90;-1.10;99847.00;;;;4804992;28;92496;-66
2022/12/11 05:31:20;;;;;;;13.73;8.77;;;-0.50;99.90;-1.10;99853.00;;;;4782987;28;92390;-66
2022/12/11 05:33:49;;;;;;;13.07;8.00;;;-0.80;99.90;-1.10;99835.00;;;;4818315;28;92651;-66
2022/12/11 05:36:28;;;;;;;9.60;7.80;;;-0.10;99.90;-1.10;99836.00;;;;4797093;28;91867;-66
2022/12/11 05:38:54;;;;;;;13.50;8.13;;;-0.70;99.90;-1.10;99831.00;;;;4818254;28;92727;-66
2022/12/11 05:41:23;;;;;;;15.63;8.27;;;-0.60;99.90;-1.20;99833.00;;;;4817399;28;98583;-66
2022/12/11 05:43:49;;;;;;;13.57;8.63;;;-0.80;99.90;-1.20;99834.00;;;;4820517;28;92991;-66
2022/12/11 05:46:24;;;;;;;10.93;6.83;;;-0.80;99.90;-1.20;99831.00;;;;4802887;28;92600;-67
2022/12/11 05:48:56;;;;;;;18.80;9.47;;;-0.70;99.90;-1.20;99823.00;;;;4816234;28;91992;-67
2022/12/11 05:51:23;;;;;;;16.67;8.23;;;-0.90;99.90;-1.20;99833.00;;;;4806854;28;92905;-67
2022/12/11 05:53:50;;;;;;;14.57;7.43;;;-0.70;99.90;-1.20;99830.00;;;;4801860;28;93094;-65
2022/12/11 05:56:20;;;;;;;13.57;7.77;;;-0.80;99.90;-1.30;99828.00;;;;4824810;28;92901;-66
2022/12/11 05:58:47;;;;;;;10.43;7.40;;;-0.90;99.90;-1.30;99823.00;;;;4817682;28;92758;-66
2022/12/11 06:01:20;;;;;;;11.73;8.17;;;-0.90;99.90;-1.30;99825.00;;;;4817998;28;93836;-67
2022/12/11 06:03:46;;;;;;;10.27;6.80;;;-1.00;99.90;-1.30;99823.00;;;;4796108;28;92824;-67
2022/12/11 06:06:13;;;;;;;13.50;8.43;;;-0.80;99.90;-1.30;99812.00;;;;4820890;28;92561;-66
2022/12/11 06:08:39;;;;;;;17.77;8.07;;;-0.90;99.90;-1.30;99828.00;;;;4817571;28;94021;-65
2022/12/11 06:11:05;;;;;;;12.97;8.10;;;-0.90;99.90;-1.40;99821.00;;;;4818133;28;113124;-66
2022/12/11 06:13:31;;;;;;;14.47;8.23;;;-0.10;99.90;-1.40;99824.00;;;;4815859;28;93347;-66
2022/12/11 06:16:04;;;;;;;14.80;8.33;;;-0.90;99.90;-1.50;99829.00;;;;4817468;28;109704;-67
2022/12/11 06:18:30;;;;;;;13.77;8.27;;;-1.00;99.90;-1.50;99827.00;;;;4819516;28;92757;-66
2022/12/11 06:20:56;;;;;;;11.90;7.57;;;-0.90;99.90;-1.50;99824.00;;;;4818593;28;121957;-67
2022/12/11 06:23:22;;;;;;;15.87;7.70;;;-1.00;99.90;-1.50;99826.00;;;;4803018;28;93006;-67
2022/12/11 06:25:48;;;;;;;16.27;9.07;;;-0.40;99.90;-1.50;99830.00;;;;4821929;28;91685;-67
2022/12/11 06:28:14;;;;;;;10.80;7.53;;;-1.10;99.90;-1.50;99828.00;;;;4816417;28;92599;-65
2022/12/11 06:30:40;;;;;;;11.63;8.00;;;-0.90;99.90;-1.50;99833.00;;;;4804863;28;92744;-65
2022/12/11 06:33:06;;;;;;;11.20;6.23;;;-1.10;99.90;-1.60;99835.00;;;;4822564;28;121896;-67
2022/12/11 06:35:32;;;;;;;12.93;7.43;;;-1.00;99.90;-1.60;99828.00;;;;4818617;28;92243;-66
2022/12/11 06:37:58;;;;;;;11.17;6.73;;;-1.10;99.90;-1.60;99833.00;;;;4821252;28;92424;-66
2022/12/11 06:40:24;;;;;;;12.37;7.27;;;-1.20;99.90;-1.70;99841.00;;;;4769341;28;92869;-67
2022/12/11 06:42:50;;;;;;;10.33;7.30;;;-1.30;99.90;-1.70;99847.00;;;;4788498;28;92428;-68
2022/12/11 06:45:16;;;;;;;10.70;6.83;;;-1.30;99.90;-1.70;99847.00;;;;4813628;28;94788;-66
2022/12/11 06:47:42;;;;;;;10.07;7.00;;;-1.30;99.90;-1.70;99853.00;;;;4819448;28;99440;-67
2022/12/11 06:50:08;;;;;;;12.40;7.27;;;-1.20;99.90;-1.70;99857.00;;;;4815456;28;93100;-65
2022/12/11 06:52:34;;;;;;;10.43;7.00;;;-1.20;99.90;-1.70;99854.00;;;;4811784;28;93013;-65
2022/12/11 06:55:00;;;;;;;12.03;7.47;;;-1.30;99.90;-1.70;99857.00;;;;4808140;28;109816;-67
2022/12/11 06:57:25;;;;;;;14.90;7.37;;;-1.30;99.90;-1.70;99844.00;;;;4806945;28;108171;-65
2022/12/11 06:59:51;;;;;;;9.43;5.97;;;-1.30;99.90;-1.80;99845.00;;;;4807222;28;118547;-65
2022/12/11 07:02:19;;;;;;;10.90;7.23;;;-1.30;99.90;-1.90;99858.00;;;;4811913;28;122992;-66
2022/12/11 07:04:45;;;;;;;9.00;5.67;;;-1.70;99.90;-1.90;99854.00;;;;4815016;28;92789;-65
2022/12/11 07:07:11;;;;;;;12.67;6.40;;;-2.50;99.90;-2.00;99850.00;;;;4800837;28;93098;-65
2022/12/11 07:09:39;;;;;;;11.10;5.80;;;-1.60;99.90;-2.10;99847.00;;;;4810180;28;102672;-66
2022/12/11 07:12:06;;;;;;;10.73;7.23;;;-1.60;99.90;-2.10;99861.00;;;;4810975;28;116352;-64
2022/12/11 07:14:32;;;;;;;10.97;5.83;;;-1.70;99.90;-2.20;99863.00;;;;4814519;28;92520;-65
2022/12/11 07:16:58;;;;;;;9.97;6.53;;;-0.70;99.90;-2.20;99856.00;;;;4814187;28;92767;-65
2022/12/11 07:19:25;;;;;;;13.37;6.80;;;-1.70;99.90;-2.20;99860.00;;;;4819892;28;93478;-65
2022/12/11 07:21:51;;;;;;;12.33;6.43;;;-1.70;99.90;-2.30;99852.00;;;;4816513;28;101740;-65
2022/12/11 07:24:17;;;;;;;8.47;5.60;;;-1.80;99.90;-2.30;99866.00;;;;4815927;28;110619;-65
2022/12/11 07:26:42;;;;;;;9.23;5.97;;;-1.80;99.90;-2.20;99868.00;;;;4819664;28;92946;-65
2022/12/11 07:29:08;;;;;;;10.83;7.00;;;-0.80;99.90;-2.30;99857.00;;;;4814970;28;123086;-65
2022/12/11 07:31:34;;;;;;;13.27;7.00;;;-1.60;99.90;-2.30;99873.00;;;;4809640;28;122453;-68
2022/12/11 07:34:05;;;;;;;15.13;8.70;;;-1.80;99.90;-2.20;99871.00;;;;4816608;28;113029;-65
2022/12/11 07:36:32;;;;;;;15.70;7.37;;;-1.80;99.90;-2.20;99876.00;;;;4818969;28;92937;-65
2022/12/11 07:38:59;;;;;;;15.47;7.33;;;-1.80;99.90;-2.20;99873.00;;;;4816037;28;99213;-66
2022/12/11 07:41:27;;;;;;;9.87;6.37;;;-1.70;99.90;-2.20;99878.00;;;;4819887;28;92834;-65
2022/12/11 07:43:54;;;;;;;14.03;7.03;;;-1.70;99.90;-2.10;99867.00;;;;4821749;28;92757;-64
2022/12/11 07:46:24;;;;;;;11.27;7.00;;;-1.70;99.90;-2.10;99874.00;;;;4820029;28;94048;-66
2022/12/11 07:48:50;;;;;;;11.23;6.63;;;-1.70;99.90;-2.20;99883.00;;;;4815316;28;94233;-67
2022/12/11 07:51:26;;;;;;;7.27;5.43;;;-1.80;99.90;-2.20;99879.00;;;;4813056;28;93914;-67
2022/12/11 07:53:55;;;;;;;9.20;6.33;;;-1.70;99.90;-2.20;99871.00;;;;4822659;28;93064;-67
2022/12/11 07:56:21;;;;;;;12.67;7.27;;;-1.70;99.90;-2.20;99891.00;;;;4822176;28;92842;-65
2022/12/11 07:58:47;;;;;;;10.87;6.97;;;-1.70;99.90;-2.20;99880.00;;;;4819431;28;93503;-65
2022/12/11 08:01:17;;;;;;;8.47;6.77;;;-1.80;99.90;-2.10;99878.00;;;;4821290;28;93007;-64
2022/12/11 08:03:43;;;;;;;8.87;7.10;;;-1.70;99.90;-2.10;99875.00;;;;4822776;28;91951;-64
2022/12/11 08:06:09;;;;;;;10.63;6.53;;;-1.70;99.90;-2.10;99870.00;;;;4801210;28;93250;-65
2022/12/11 08:08:35;;;;;;;9.13;5.70;;;-1.70;99.90;-2.10;99876.00;;;;4814912;28;101919;-66
2022/12/11 08:11:03;;;;;;;12.23;7.17;;;-1.70;99.90;-2.20;99879.00;;;;4814623;28;93749;-65
2022/12/11 08:13:28;;;;;;;13.00;7.57;;;-1.70;99.90;-2.20;99876.00;;;;4817705;28;93011;-67
2022/12/11 08:15:54;;;;;;;11.03;6.40;;;-1.70;99.90;-2.20;99884.00;;;;4816409;28;93036;-64
2022/12/11 08:18:20;;;;;;;10.17;6.10;;;-1.70;99.90;-2.20;99873.00;;;;4806290;28;93530;-66
2022/12/11 08:20:45;;;;;;;10.00;6.73;;;-1.70;99.90;-2.10;99872.00;;;;4800396;28;122003;-64
2022/12/11 08:23:11;;;;;;;13.07;7.00;;;-1.80;99.90;-2.10;99889.00;;;;4816743;28;93082;-67
2022/12/11 08:25:37;;;;;;;15.17;7.03;;;-1.70;99.90;-2.10;99883.00;;;;4809380;28;109048;-66
2022/12/11 08:28:03;;;;;;;8.27;5.40;;;-1.70;99.90;-2.10;99879.00;;;;4813689;28;122556;-66
2022/12/11 08:30:28;;;;;;;14.50;7.03;;;-1.60;99.90;-2.00;99877.00;;;;4812485;28;97822;-66
2022/12/11 08:32:54;;;;;;;10.13;6.97;;;-1.60;99.90;-2.00;99874.00;;;;4816184;28;92790;-65
2022/12/11 08:35:20;;;;;;;13.37;7.63;;;-1.50;99.90;-2.00;99872.00;;;;4817935;28;100754;-66
2022/12/11 08:37:46;;;;;;;10.43;6.33;;;-1.50;99.90;-1.90;99877.00;;;;4817270;28;93192;-66
2022/12/11 08:40:13;;;;;;;13.63;7.37;;;-1.60;99.90;-1.90;99867.00;;;;4807105;28;96718;-65
2022/12/11 08:42:38;;;;;;;10.00;6.13;;;-1.50;99.90;-1.90;99872.00;;;;4817241;28;93084;-68
2022/12/11 08:45:05;;;;;;;10.77;6.27;;;-1.50;99.90;-1.90;99865.00;;;;4814292;28;92860;-63
2022/12/11 08:47:31;;;;;;;14.80;7.07;;;-1.50;99.90;-1.90;99861.00;;;;4816720;28;93367;-65
2022/12/11 08:49:57;;;;;;;11.73;6.77;;;-1.50;99.90;-1.90;99860.00;;;;4813911;28;122501;-65
2022/12/11 08:52:23;;;;;;;11.57;6.17;;;-1.40;99.90;-1.90;99861.00;;;;4813908;28;109632;-65
2022/12/11 08:54:48;;;;;;;11.47;6.83;;;-1.40;99.90;-1.90;99865.00;;;;4467231;28;107461;-65
2022/12/11 08:57:14;;;;;;;12.53;6.23;;;-1.40;99.90;-1.90;99870.00;;;;4815101;28;123482;-65
2022/12/11 08:59:40;;;;;;;9.77;6.80;;;-1.40;99.90;-1.80;99865.00;;;;4818599;28;123166;-65
2022/12/11 09:02:05;;;;;;;12.83;6.77;;;-1.50;99.90;-1.90;99864.00;;;;4815701;28;110480;-65
2022/12/11 09:04:31;;;;;;;11.60;7.00;;;-1.40;99.90;-1.90;99867.00;;;;4818996;28;92887;-65
2022/12/11 09:06:57;;;;;;;11.00;5.47;;;-1.10;99.90;-1.90;99866.00;;;;4798010;28;123173;-64
2022/12/11 09:09:23;;;;;;;9.67;5.63;;;-1.50;99.90;-1.90;99867.00;;;;4817398;28;124050;-66
2022/12/11 09:11:49;;;;;;;9.10;5.57;;;-1.40;99.90;-1.80;99868.00;;;;4814044;28;92747;-68
2022/12/11 09:14:15;;;;;;;11.93;6.27;;;-1.40;99.90;-1.80;99868.00;;;;4817484;28;108270;-64
2022/12/11 09:16:41;;;;;;;10.43;5.90;;;-1.40;99.90;-1.70;99868.00;;;;4817616;28;93503;-65
2022/12/11 09:19:12;;;;;;;9.77;5.67;;;-1.40;99.90;-1.70;99867.00;;;;4818342;28;99741;-66
2022/12/11 09:21:38;;;;;;;9.63;6.70;;;-0.70;99.90;-1.60;99863.00;;;;4819199;28;92946;-67
2022/12/11 09:24:05;;;;;;;10.70;6.77;;;-0.70;99.90;-1.60;99861.00;;;;4817868;28;94978;-67
2022/12/11 09:26:30;;;;;;;9.83;6.87;;;-1.20;99.90;-1.60;99860.00;;;;4816310;28;94358;-66
2022/12/11 09:28:57;;;;;;;9.13;5.77;;;-1.20;99.90;-1.50;99859.00;;;;4813363;28;93543;-66
2022/12/11 09:31:26;;;;;;;12.30;5.83;;;-1.10;99.90;-1.50;99862.00;;;;4814647;28;92812;-67
2022/12/11 09:34:00;;;;;;;11.97;5.97;;;-1.20;99.90;-1.60;99864.00;;;;4813040;28;93013;-66
2022/12/11 09:36:27;;;;;;;14.93;6.27;;;-1.10;99.90;-1.60;99851.00;;;;4817793;28;92995;-65
2022/12/11 09:38:53;;;;;;;16.10;7.17;;;-1.30;99.90;-1.60;99845.00;;;;4816278;28;93944;-65
2022/12/11 09:41:21;;;;;;;11.33;6.10;;;-0.40;99.90;-1.60;99840.00;;;;4819334;28;93491;-66
2022/12/11 09:44:12;;;;;;;11.63;6.77;;;-1.20;99.90;-1.70;99840.00;;;;4814820;28;93185;-66
2022/12/11 09:46:39;;;;;;;7.37;4.70;;;-1.20;99.90;-1.60;99852.00;;;;4797379;28;93330;-65
2022/12/11 09:49:21;;;;;;;13.43;6.73;;;-0.50;99.90;-1.60;99839.00;;;;4801182;28;93752;-66
2022/12/11 09:52:04;;;;;;;7.47;5.23;;;-1.10;99.90;-1.60;99845.00;;;;4812036;28;92852;-68
2022/12/11 09:54:31;;;;;;;11.57;5.10;;;-1.10;99.90;-1.60;99847.00;;;;4814236;28;92899;-66
2022/12/11 09:57:38;;;;;;;12.03;5.60;;;-0.10;99.90;-1.50;99845.00;;;;4798747;28;93789;-65
2022/12/11 10:00:19;;;;;;;9.23;6.27;;;-0.90;99.90;-1.50;99848.00;;;;4743657;29;94674;-66
2022/12/11 10:03:24;;;;;;;11.17;6.13;;;-0.40;99.90;-1.50;99843.00;;;;4783555;28;93041;-65
2022/12/11 10:06:14;;;;;;;11.47;6.60;;;-1.10;99.90;-1.50;99845.00;;;;4812486;28;93353;-67
2022/12/11 10:09:07;;;;;;;10.90;6.97;;;-1.00;99.90;-1.40;99845.00;;;;4818752;28;92516;-64
2022/12/11 10:12:11;;;;;;;11.60;6.30;;;-1.00;99.90;-1.40;99841.00;;;;4819647;28;95825;-66
2022/12/11 10:14:58;;;;;;;11.30;5.67;;;-1.00;99.90;-1.30;99850.00;;;;4803006;28;92782;-66
2022/12/11 10:17:30;;;;;;;10.47;6.10;;;-0.80;99.90;-1.30;99844.00;;;;4801585;28;93885;-66
2022/12/11 10:20:23;;;;;;;10.87;5.73;;;-0.70;99.90;-1.30;99840.00;;;;4820013;28;94239;-65
2022/12/11 10:22:51;;;;;;;12.03;6.43;;;-1.00;99.90;-1.30;99833.00;;;;4797014;28;92811;-65
2022/12/11 10:25:28;;;;;;;11.67;6.53;;;0.20;99.90;-1.30;99837.00;;;;4810292;28;92835;-66
2022/12/11 10:27:54;;;;;;;10.40;6.33;;;-0.80;99.90;-1.30;99837.00;;;;4809717;28;93723;-66
2022/12/11 10:30:30;;;;;;;9.03;6.03;;;-0.90;99.90;-1.40;99824.00;;;;4776233;28;95065;-65
2022/12/11 10:33:10;;;;;;;11.23;7.13;;;-0.90;99.90;-1.30;99823.00;;;;4791442;28;92816;-68
2022/12/11 10:35:45;;;;;;;12.13;6.97;;;-0.90;99.90;-1.30;99824.00;;;;4801057;28;92818;-66
2022/12/11 10:38:29;;;;;;;9.43;5.97;;;-0.90;99.90;-1.20;99812.00;;;;4812009;28;92924;-66
2022/12/11 10:41:08;;;;;;;11.60;6.73;;;-0.90;99.90;-1.20;99808.00;;;;4798414;29;93071;-66
2022/12/11 10:43:57;;;;;;;8.13;5.73;;;-0.90;99.90;-1.20;99806.00;;;;4798588;28;106547;-66
2022/12/11 10:46:26;;;;;;;13.53;7.53;;;-0.90;99.90;-1.30;99808.00;;;;4813980;28;92762;-66
2022/12/11 10:48:57;;;;;;;10.47;6.57;;;-0.90;99.90;-1.20;99803.00;;;;4814012;28;92975;-66
2022/12/11 10:51:29;;;;;;;13.57;6.83;;;-0.80;99.90;-1.20;99805.00;;;;4792729;28;93784;-65
2022/12/11 10:54:05;;;;;;;12.23;7.70;;;-0.80;99.90;-1.20;99805.00;;;;4813961;28;94230;-67
2022/12/11 10:56:32;;;;;;;10.00;6.53;;;-0.70;99.90;-1.10;99808.00;;;;4813719;28;92901;-65
2022/12/11 10:59:00;;;;;;;10.13;6.97;;;-0.80;99.90;-1.10;99805.00;;;;4802996;28;92798;-67
2022/12/11 11:01:31;;;;;;;11.23;6.47;;;-0.80;99.90;-1.20;99793.00;;;;4816944;28;91862;-66
2022/12/11 11:04:13;;;;;;;9.97;6.97;;;-0.70;99.90;-1.20;99805.00;;;;4801140;28;92995;-68
2022/12/11 11:06:39;;;;;;;10.57;6.83;;;-0.80;99.90;-1.20;99792.00;;;;4812638;28;92947;-65
2022/12/11 11:09:29;;;;;;;10.40;6.50;;;-0.80;99.90;-1.20;99791.00;;;;4812635;28;111224;-66
2022/12/11 11:11:55;;;;;;;10.07;6.37;;;-0.70;99.90;-1.20;99791.00;;;;4797050;28;93382;-66
2022/12/11 11:14:22;;;;;;;13.37;6.93;;;-0.70;99.90;-1.20;99795.00;;;;4812350;28;102307;-66